createdAt,value
2023-05-10T00:00:12.181Z,94061.00
2023-05-10T00:01:12.207Z,94063.00
2023-05-10T00:02:12.387Z,94064.00
2023-05-10T00:03:12.388Z,94064.00
2023-05-10T00:04:12.526Z,94064.00
2023-05-10T00:05:12.412Z,94064.00
2023-05-10T00:06:12.459Z,94064.00
2023-05-10T00:07:12.463Z,94064.00
2023-05-10T00:08:12.499Z,94063.00
2023-05-10T00:09:12.571Z,94066.00
2023-05-10T00:10:12.606Z,94064.00
2023-05-10T00:11:12.628Z,94063.00
2023-05-10T00:12:12.682Z,94066.00
2023-05-10T00:13:12.764Z,94066.00
2023-05-10T00:14:12.788Z,94064.00
2023-05-10T00:15:12.793Z,94064.00
2023-05-10T00:16:12.947Z,94064.00
2023-05-10T00:17:12.945Z,94068.00
2023-05-10T00:18:12.939Z,94064.00
2023-05-10T00:19:12.983Z,94064.00
2023-05-10T00:20:13.071Z,94061.00
2023-05-10T00:21:13.088Z,94061.00
2023-05-10T00:22:13.135Z,94063.00
2023-05-10T00:23:13.181Z,94063.00
2023-05-10T00:24:13.227Z,94061.00
2023-05-10T00:25:13.245Z,94061.00
2023-05-10T00:26:13.334Z,94063.00
2023-05-10T00:27:13.351Z,94063.00
2023-05-10T00:28:13.404Z,94064.00
2023-05-10T00:29:13.452Z,94064.00
2023-05-10T00:30:13.580Z,94061.00
2023-05-10T00:31:13.553Z,94064.00
2023-05-10T00:32:13.684Z,94061.00
2023-05-10T00:33:14.603Z,94064.00
2023-05-10T00:34:13.613Z,94064.00
2023-05-10T00:35:13.583Z,94063.00
2023-05-10T00:36:13.600Z,94063.00
2023-05-10T00:37:13.573Z,94063.00
2023-05-10T00:38:13.574Z,94064.00
2023-05-10T00:39:13.550Z,94064.00
2023-05-10T00:40:13.584Z,94064.00
2023-05-10T00:41:13.543Z,94063.00
2023-05-10T00:42:13.584Z,94066.00
2023-05-10T00:43:13.667Z,94063.00
2023-05-10T00:44:13.701Z,94064.00
2023-05-10T00:45:13.718Z,94063.00
2023-05-10T00:46:13.829Z,94061.00
2023-05-10T00:47:13.833Z,94063.00
2023-05-10T00:48:13.883Z,94064.00
2023-05-10T00:49:13.933Z,94059.00
2023-05-10T00:50:14.097Z,94059.00
2023-05-10T00:51:14.009Z,94059.00
2023-05-10T00:52:14.053Z,94059.00
2023-05-10T00:53:14.133Z,94059.00
2023-05-10T00:54:14.143Z,94059.00
2023-05-10T00:55:14.210Z,94059.00
2023-05-10T00:56:14.286Z,94059.00
2023-05-10T00:57:14.297Z,94057.00
2023-05-10T00:58:14.378Z,94057.00
2023-05-10T00:59:14.444Z,94057.00
2023-05-10T01:00:14.618Z,94055.00
2023-05-10T01:01:14.556Z,94057.00
2023-05-10T01:02:14.574Z,94057.00
2023-05-10T01:03:14.651Z,94057.00
2023-05-10T01:04:14.700Z,94057.00
2023-05-10T01:05:14.743Z,94055.00
2023-05-10T01:06:14.787Z,94053.00
2023-05-10T01:07:14.801Z,94053.00
2023-05-10T01:08:14.859Z,94053.00
2023-05-10T01:09:15.197Z,94051.00
2023-05-10T01:10:15.210Z,94049.00
2023-05-10T01:11:15.029Z,94051.00
2023-05-10T01:12:15.076Z,94049.00
2023-05-10T01:13:15.100Z,94051.00
2023-05-10T01:14:15.131Z,94049.00
2023-05-10T01:15:15.192Z,94053.00
2023-05-10T01:16:16.246Z,94051.00
2023-05-10T01:17:15.264Z,94051.00
2023-05-10T01:18:15.308Z,94049.00
2023-05-10T01:29:53.397Z,94053.00
2023-05-10T01:30:49.780Z,94057.00
2023-05-10T01:31:48.740Z,94055.00
2023-05-10T01:32:48.705Z,94059.00
2023-05-10T01:33:48.700Z,94057.00
2023-05-10T01:34:48.707Z,94059.00
2023-05-10T01:35:48.654Z,94057.00
2023-05-10T01:36:48.656Z,94057.00
2023-05-10T01:37:48.637Z,94055.00
2023-05-10T01:38:48.657Z,94055.00
2023-05-10T01:39:48.688Z,94057.00
2023-05-10T01:40:48.699Z,94061.00
2023-05-10T01:41:48.744Z,94061.00
2023-05-10T01:42:49.397Z,94063.00
2023-05-10T01:43:48.851Z,94063.00
2023-05-10T01:44:48.916Z,94063.00
2023-05-10T01:45:48.957Z,94066.00
2023-05-10T01:46:49.004Z,94066.00
2023-05-10T01:47:49.132Z,94066.00
2023-05-10T01:48:49.154Z,94068.00
2023-05-10T01:49:49.148Z,94068.00
2023-05-10T01:50:49.165Z,94068.00
2023-05-10T01:51:49.230Z,94072.00
2023-05-10T01:52:49.334Z,94072.00
2023-05-10T01:53:49.340Z,94072.00
2023-05-10T01:54:49.466Z,94074.00
2023-05-10T01:55:49.509Z,94074.00
2023-05-10T01:56:49.488Z,94082.00
2023-05-10T01:57:49.591Z,94082.00
2023-05-10T01:58:49.629Z,94084.00
2023-05-10T01:59:49.654Z,94078.00
2023-05-10T02:00:49.694Z,94086.00
2023-05-10T02:01:49.735Z,94088.00
2023-05-10T02:02:49.855Z,94088.00
2023-05-10T02:03:49.954Z,94088.00
2023-05-10T02:04:49.922Z,94088.00
2023-05-10T02:05:49.926Z,94090.00
2023-05-10T02:06:49.983Z,94092.00
2023-05-10T02:07:50.018Z,94092.00
2023-05-10T02:08:50.080Z,94092.00
2023-05-10T02:09:50.161Z,94092.00
2023-05-10T02:10:50.176Z,94094.00
2023-05-10T02:11:50.226Z,94096.00
2023-05-10T02:12:50.268Z,94096.00
2023-05-10T02:13:50.336Z,94096.00
2023-05-10T02:14:50.375Z,94098.00
2023-05-10T02:15:50.447Z,94100.00
2023-05-10T02:16:50.535Z,94100.00
2023-05-10T02:17:50.558Z,94102.00
2023-05-10T02:18:50.558Z,94102.00
2023-05-10T02:19:50.603Z,94102.00
2023-05-10T02:20:50.630Z,94102.00
2023-05-10T02:21:50.709Z,94100.00
2023-05-10T02:22:50.751Z,94106.00
2023-05-10T02:23:50.815Z,94104.00
2023-05-10T02:24:50.839Z,94104.00
2023-05-10T02:25:50.949Z,94104.00
2023-05-10T02:26:50.948Z,94104.00
2023-05-10T02:27:51.037Z,94100.00
2023-05-10T02:28:51.067Z,94102.00
2023-05-10T02:29:51.117Z,94104.00
2023-05-10T02:30:51.200Z,94106.00
2023-05-10T02:31:51.239Z,94106.00
2023-05-10T02:32:51.273Z,94113.00
2023-05-10T02:33:51.309Z,94113.00
2023-05-10T02:34:51.383Z,94113.00
2023-05-10T02:35:51.400Z,94106.00
2023-05-10T02:36:51.459Z,94113.00
2023-05-10T02:37:51.499Z,94113.00
2023-05-10T02:38:51.536Z,94113.00
2023-05-10T02:39:51.588Z,94113.00
2023-05-10T02:40:51.638Z,94113.00
2023-05-10T02:41:51.685Z,94113.00
2023-05-10T02:42:51.751Z,94106.00
2023-05-10T02:43:51.754Z,94102.00
2023-05-10T02:44:51.815Z,94113.00
2023-05-10T02:45:51.867Z,94102.00
2023-05-10T02:46:51.865Z,94106.00
2023-05-10T02:47:51.973Z,94113.00
2023-05-10T02:48:52.483Z,94102.00
2023-05-10T02:49:52.031Z,94104.00
2023-05-10T02:50:52.141Z,94102.00
2023-05-10T02:51:52.111Z,94102.00
2023-05-10T02:52:52.178Z,94104.00
2023-05-10T02:53:52.200Z,94102.00
2023-05-10T02:54:52.252Z,94102.00
2023-05-10T02:55:52.288Z,94100.00
2023-05-10T02:56:52.339Z,94100.00
2023-05-10T02:57:52.381Z,94098.00
2023-05-10T02:58:52.454Z,94096.00
2023-05-10T02:59:52.475Z,94096.00
2023-05-10T03:00:52.524Z,94094.00
2023-05-10T03:01:52.693Z,94094.00
2023-05-10T03:02:52.697Z,94094.00
2023-05-10T03:03:52.653Z,94094.00
2023-05-10T03:04:52.775Z,94096.00
2023-05-10T03:05:52.732Z,94096.00
2023-05-10T03:06:52.803Z,94096.00
2023-05-10T03:07:52.774Z,94096.00
2023-05-10T03:08:52.848Z,94098.00
2023-05-10T03:09:52.860Z,94098.00
2023-05-10T03:10:52.900Z,94098.00
2023-05-10T03:11:52.937Z,94098.00
2023-05-10T03:12:53.028Z,94098.00
2023-05-10T03:13:53.585Z,94096.00
2023-05-10T03:14:53.058Z,94096.00
2023-05-10T03:15:53.108Z,94096.00
2023-05-10T03:16:53.153Z,94098.00
2023-05-10T03:17:53.218Z,94102.00
2023-05-10T03:18:53.329Z,94104.00
2023-05-10T03:19:53.297Z,94104.00
2023-05-10T03:20:53.377Z,94106.00
2023-05-10T03:21:53.346Z,94106.00
2023-05-10T03:22:53.385Z,94113.00
2023-05-10T03:23:53.385Z,94106.00
2023-05-10T03:24:53.439Z,94115.00
2023-05-10T03:25:53.496Z,94117.00
2023-05-10T03:26:53.491Z,94115.00
2023-05-10T03:27:53.559Z,94117.00
2023-05-10T03:28:53.573Z,94117.00
2023-05-10T03:29:53.584Z,94115.00
2023-05-10T03:30:53.612Z,94117.00
2023-05-10T03:31:53.805Z,94119.00
2023-05-10T03:32:53.782Z,94119.00
2023-05-10T03:33:53.753Z,94121.00
2023-05-10T03:34:53.806Z,94119.00
2023-05-10T03:35:53.807Z,94123.00
2023-05-10T03:36:53.861Z,94123.00
2023-05-10T03:37:53.900Z,94127.00
2023-05-10T03:38:53.919Z,94131.00
2023-05-10T03:39:53.925Z,94129.00
2023-05-10T03:40:53.954Z,94129.00
2023-05-10T03:41:53.982Z,94133.00
2023-05-10T03:42:54.030Z,94135.00
2023-05-10T03:43:54.080Z,94137.00
2023-05-10T03:44:54.074Z,94137.00
2023-05-10T03:45:54.100Z,94137.00
2023-05-10T03:46:54.156Z,94137.00
2023-05-10T03:47:54.198Z,94137.00
2023-05-10T03:48:54.194Z,94139.00
2023-05-10T03:49:54.222Z,94139.00
2023-05-10T03:50:54.291Z,94139.00
2023-05-10T03:51:54.313Z,94139.00
2023-05-10T03:52:54.910Z,94141.00
2023-05-10T03:53:54.412Z,94141.00
2023-05-10T03:54:54.381Z,94141.00
2023-05-10T03:55:54.433Z,94143.00
2023-05-10T03:56:55.444Z,94143.00
2023-05-10T03:57:54.509Z,94145.00
2023-05-10T03:58:54.564Z,94143.00
2023-05-10T03:59:54.552Z,94141.00
2023-05-10T04:00:54.602Z,94139.00
2023-05-10T04:01:54.655Z,94141.00
2023-05-10T04:02:54.642Z,94139.00
2023-05-10T04:03:54.739Z,94139.00
2023-05-10T04:04:54.680Z,94139.00
2023-05-10T04:05:54.737Z,94137.00
2023-05-10T04:06:54.750Z,94139.00
2023-05-10T04:07:54.766Z,94139.00
2023-05-10T04:08:54.848Z,94139.00
2023-05-10T04:09:54.837Z,94139.00
2023-05-10T04:10:54.878Z,94141.00
2023-05-10T04:11:54.937Z,94139.00
2023-05-10T04:12:54.962Z,94137.00
2023-05-10T04:13:55.024Z,94139.00
2023-05-10T04:14:54.998Z,94139.00
2023-05-10T04:15:55.068Z,94139.00
2023-05-10T04:16:55.082Z,94137.00
2023-05-10T04:17:55.133Z,94139.00
2023-05-10T04:18:55.158Z,94141.00
2023-05-10T04:19:55.167Z,94143.00
2023-05-10T04:20:55.198Z,94139.00
2023-05-10T04:21:55.229Z,94139.00
2023-05-10T04:22:55.221Z,94139.00
2023-05-10T04:23:55.299Z,94139.00
2023-05-10T04:24:55.306Z,94135.00
2023-05-10T04:25:55.328Z,94137.00
2023-05-10T04:26:56.542Z,94135.00
2023-05-10T04:27:55.392Z,94139.00
2023-05-10T04:28:55.445Z,94137.00
2023-05-10T04:29:55.453Z,94137.00
2023-05-10T04:30:55.529Z,94137.00
2023-05-10T04:31:55.512Z,94137.00
2023-05-10T04:32:55.588Z,94137.00
2023-05-10T04:33:55.617Z,94137.00
2023-05-10T04:34:55.619Z,94137.00
2023-05-10T04:35:55.671Z,94137.00
2023-05-10T04:36:55.673Z,94137.00
2023-05-10T04:37:55.713Z,94135.00
2023-05-10T04:38:55.733Z,94137.00
2023-05-10T04:39:55.758Z,94137.00
2023-05-10T04:40:55.789Z,94141.00
2023-05-10T04:41:55.794Z,94141.00
2023-05-10T04:42:55.860Z,94141.00
2023-05-10T04:43:55.878Z,94143.00
2023-05-10T04:44:55.891Z,94143.00
2023-05-10T04:45:55.944Z,94141.00
2023-05-10T04:46:56.002Z,94143.00
2023-05-10T04:47:56.059Z,94143.00
2023-05-10T04:48:56.088Z,94145.00
2023-05-10T04:49:56.063Z,94143.00
2023-05-10T04:50:56.108Z,94143.00
2023-05-10T04:51:56.117Z,94143.00
2023-05-10T04:52:56.129Z,94147.00
2023-05-10T04:54:05.115Z,94147.00
2023-05-10T04:54:57.163Z,94147.00
2023-05-10T04:55:56.245Z,94147.00
2023-05-10T04:56:56.150Z,94149.00
2023-05-10T04:57:56.131Z,94149.00
2023-05-10T04:58:56.150Z,94153.00
2023-05-10T04:59:56.146Z,94157.00
2023-05-10T05:00:56.100Z,94159.00
2023-05-10T05:01:56.162Z,94157.00
2023-05-10T05:02:56.183Z,94159.00
2023-05-10T05:03:56.242Z,94159.00
2023-05-10T05:04:56.093Z,94160.00
2023-05-10T05:05:56.083Z,94160.00
2023-05-10T05:06:56.077Z,94164.00
2023-05-10T05:07:56.098Z,94166.00
2023-05-10T05:08:56.059Z,94168.00
2023-05-10T05:09:56.140Z,94168.00
2023-05-10T05:10:56.119Z,94170.00
2023-05-10T05:11:56.140Z,94172.00
2023-05-10T05:12:56.194Z,94172.00
2023-05-10T05:13:56.196Z,94172.00
2023-05-10T05:14:56.230Z,94174.00
2023-05-10T05:15:56.369Z,94172.00
2023-05-10T05:16:56.244Z,94178.00
2023-05-10T05:17:56.361Z,94174.00
2023-05-10T05:18:56.306Z,94178.00
2023-05-10T05:19:56.318Z,94180.00
2023-05-10T05:20:56.315Z,94178.00
2023-05-10T05:21:56.357Z,94180.00
2023-05-10T05:22:56.384Z,94182.00
2023-05-10T05:23:56.418Z,94186.00
2023-05-10T05:24:56.447Z,94186.00
2023-05-10T05:25:56.451Z,94184.00
2023-05-10T05:26:56.500Z,94182.00
2023-05-10T05:27:56.521Z,94184.00
2023-05-10T05:28:56.538Z,94178.00
2023-05-10T05:29:56.716Z,94182.00
2023-05-10T05:30:56.627Z,94184.00
2023-05-10T05:31:56.733Z,94184.00
2023-05-10T05:32:56.721Z,94190.00
2023-05-10T05:33:56.780Z,94188.00
2023-05-10T05:34:56.772Z,94188.00
2023-05-10T05:35:56.824Z,94188.00
2023-05-10T05:36:56.786Z,94186.00
2023-05-10T05:37:56.835Z,94184.00
2023-05-10T05:38:56.827Z,94190.00
2023-05-10T05:39:56.953Z,94192.00
2023-05-10T05:40:56.974Z,94194.00
2023-05-10T05:41:56.954Z,94196.00
2023-05-10T05:42:57.054Z,94196.00
2023-05-10T05:43:57.051Z,94194.00
2023-05-10T05:44:57.143Z,94194.00
2023-05-10T05:45:57.169Z,94190.00
2023-05-10T05:46:57.200Z,94194.00
2023-05-10T05:47:57.274Z,94194.00
2023-05-10T05:48:57.316Z,94192.00
2023-05-10T05:49:57.372Z,94194.00
2023-05-10T05:50:57.525Z,94194.00
2023-05-10T05:51:57.470Z,94194.00
2023-05-10T05:52:57.523Z,94192.00
2023-05-10T05:53:57.570Z,94192.00
2023-05-10T05:54:57.637Z,94188.00
2023-05-10T05:55:57.664Z,94190.00
2023-05-10T05:56:59.770Z,94192.00
2023-05-10T05:57:57.712Z,94196.00
2023-05-10T05:58:57.765Z,94194.00
2023-05-10T05:59:57.722Z,94192.00
2023-05-10T06:00:57.750Z,94194.00
2023-05-10T06:01:57.793Z,94196.00
2023-05-10T06:02:57.790Z,94194.00
2023-05-10T06:03:57.874Z,94194.00
2023-05-10T06:04:58.002Z,94194.00
2023-05-10T06:05:57.671Z,94192.00
2023-05-10T06:06:57.660Z,94196.00
2023-05-10T06:07:57.698Z,94196.00
2023-05-10T06:08:57.690Z,94200.00
2023-05-10T06:09:57.653Z,94202.00
2023-05-10T06:10:57.755Z,94200.00
2023-05-10T06:11:57.644Z,94198.00
2023-05-10T06:12:57.716Z,94202.00
2023-05-10T06:13:57.635Z,94198.00
2023-05-10T06:14:57.626Z,94200.00
2023-05-10T06:15:57.674Z,94198.00
2023-05-10T06:16:57.743Z,94202.00
2023-05-10T06:18:57.768Z,94206.00
2023-05-10T06:19:57.591Z,94207.00
2023-05-10T06:20:57.629Z,94204.00
2023-05-10T06:21:57.580Z,94206.00
2023-05-10T06:22:57.564Z,94204.00
2023-05-10T06:23:57.561Z,94202.00
2023-05-10T06:24:57.568Z,94202.00
2023-05-10T06:25:57.551Z,94202.00
2023-05-10T06:26:57.545Z,94204.00
2023-05-10T06:27:57.530Z,94204.00
2023-05-10T06:28:57.519Z,94206.00
2023-05-10T06:30:05.762Z,94206.00
2023-05-10T06:30:58.564Z,94207.00
2023-05-10T06:31:57.607Z,94207.00
2023-05-10T06:32:57.683Z,94207.00
2023-05-10T06:33:57.503Z,94207.00
2023-05-10T06:34:57.523Z,94207.00
2023-05-10T06:35:57.538Z,94207.00
2023-05-10T06:36:57.515Z,94206.00
2023-05-10T06:37:57.526Z,94206.00
2023-05-10T06:38:57.456Z,94204.00
2023-05-10T06:39:57.553Z,94209.00
2023-05-10T06:40:57.592Z,94209.00
2023-05-10T06:41:57.491Z,94207.00
2023-05-10T06:42:57.487Z,94207.00
2023-05-10T06:43:57.542Z,94207.00
2023-05-10T06:44:58.071Z,94207.00
2023-05-10T06:45:57.700Z,94207.00
2023-05-10T06:46:57.660Z,94206.00
2023-05-10T06:47:57.769Z,94207.00
2023-05-10T06:48:57.746Z,94207.00
2023-05-10T06:49:57.826Z,94206.00
2023-05-10T06:50:57.840Z,94204.00
2023-05-10T06:51:57.895Z,94206.00
2023-05-10T06:52:58.031Z,94204.00
2023-05-10T06:53:58.014Z,94206.00
2023-05-10T06:54:58.307Z,94206.00
2023-05-10T06:55:58.131Z,94204.00
2023-05-10T06:56:58.119Z,94204.00
2023-05-10T06:57:58.145Z,94206.00
2023-05-10T06:58:58.243Z,94204.00
2023-05-10T06:59:58.248Z,94202.00
2023-05-10T07:00:58.381Z,94202.00
2023-05-10T07:01:58.357Z,94202.00
2023-05-10T07:02:59.338Z,94200.00
2023-05-10T07:03:58.299Z,94206.00
2023-05-10T07:05:00.112Z,94202.00
2023-05-10T07:05:58.314Z,94202.00
2023-05-10T07:06:58.339Z,94204.00
2023-05-10T07:07:58.286Z,94202.00
2023-05-10T07:08:58.277Z,94202.00
2023-05-10T07:09:58.291Z,94204.00
2023-05-10T07:10:58.267Z,94204.00
2023-05-10T07:11:58.282Z,94204.00
2023-05-10T07:12:58.383Z,94206.00
2023-05-10T07:13:58.281Z,94204.00
2023-05-10T07:14:58.240Z,94206.00
2023-05-10T07:15:58.242Z,94207.00
2023-05-10T07:16:59.108Z,94207.00
2023-05-10T07:17:58.425Z,94206.00
2023-05-10T07:18:58.203Z,94206.00
2023-05-10T07:19:58.242Z,94206.00
2023-05-10T07:20:58.218Z,94204.00
2023-05-10T07:21:58.188Z,94206.00
2023-05-10T07:22:58.213Z,94204.00
2023-05-10T07:23:58.200Z,94207.00
2023-05-10T07:24:58.382Z,94207.00
2023-05-10T07:25:58.153Z,94211.00
2023-05-10T07:26:58.145Z,94213.00
2023-05-10T07:27:58.147Z,94213.00
2023-05-10T07:28:58.143Z,94213.00
2023-05-10T07:29:58.152Z,94211.00
2023-05-10T07:30:58.160Z,94211.00
2023-05-10T07:31:59.051Z,94213.00
2023-05-10T07:32:58.137Z,94211.00
2023-05-10T07:33:58.124Z,94209.00
2023-05-10T07:34:58.562Z,94211.00
2023-05-10T07:35:58.190Z,94209.00
2023-05-10T07:36:59.095Z,94207.00
2023-05-10T07:37:58.182Z,94209.00
2023-05-10T07:38:58.121Z,94207.00
2023-05-10T07:39:58.091Z,94209.00
2023-05-10T07:40:58.060Z,94209.00
2023-05-10T07:41:58.081Z,94207.00
2023-05-10T07:42:58.209Z,94211.00
2023-05-10T07:43:58.551Z,94207.00
2023-05-10T07:44:58.073Z,94211.00
2023-05-10T07:45:58.037Z,94209.00
2023-05-10T07:46:58.015Z,94211.00
2023-05-10T07:47:58.074Z,94211.00
2023-05-10T07:48:58.015Z,94213.00
2023-05-10T07:49:58.126Z,94211.00
2023-05-10T07:50:58.033Z,94217.00
2023-05-10T07:51:58.652Z,94211.00
2023-05-10T07:52:58.647Z,94215.00
2023-05-10T07:53:57.989Z,94215.00
2023-05-10T07:54:58.108Z,94217.00
2023-05-10T07:55:58.059Z,94213.00
2023-05-10T07:56:58.050Z,94215.00
2023-05-10T07:57:57.962Z,94213.00
2023-05-10T07:58:57.930Z,94213.00
2023-05-10T07:59:58.202Z,94215.00
2023-05-10T08:00:57.979Z,94213.00
2023-05-10T08:01:57.943Z,94215.00
2023-05-10T08:02:58.016Z,94215.00
2023-05-10T08:03:58.015Z,94213.00
2023-05-10T08:04:57.920Z,94211.00
2023-05-10T08:05:57.907Z,94213.00
2023-05-10T08:06:57.977Z,94219.00
2023-05-10T08:07:57.888Z,94219.00
2023-05-10T08:08:57.902Z,94217.00
2023-05-10T08:09:57.982Z,94219.00
2023-05-10T08:10:57.905Z,94219.00
2023-05-10T08:11:57.867Z,94219.00
2023-05-10T08:12:57.880Z,94219.00
2023-05-10T08:13:57.863Z,94219.00
2023-05-10T08:14:57.918Z,94221.00
2023-05-10T08:15:57.996Z,94223.00
2023-05-10T08:16:57.918Z,94225.00
2023-05-10T08:17:57.913Z,94223.00
2023-05-10T08:18:57.903Z,94221.00
2023-05-10T08:19:58.094Z,94225.00
2023-05-10T08:20:57.928Z,94225.00
2023-05-10T08:21:57.956Z,94225.00
2023-05-10T08:22:58.069Z,94225.00
2023-05-10T08:23:58.146Z,94225.00
2023-05-10T08:24:58.027Z,94223.00
2023-05-10T08:25:58.100Z,94225.00
2023-05-10T08:26:58.151Z,94227.00
2023-05-10T08:27:58.216Z,94227.00
2023-05-10T08:28:58.232Z,94227.00
2023-05-10T08:29:58.281Z,94225.00
2023-05-10T08:30:58.367Z,94225.00
2023-05-10T08:31:58.383Z,94227.00
2023-05-10T08:32:58.503Z,94227.00
2023-05-10T08:33:58.504Z,94229.00
2023-05-10T08:34:58.550Z,94231.00
2023-05-10T08:35:58.600Z,94229.00
2023-05-10T08:36:58.676Z,94229.00
2023-05-10T08:37:58.706Z,94231.00
2023-05-10T08:38:58.761Z,94233.00
2023-05-10T08:39:58.804Z,94231.00
2023-05-10T08:40:58.816Z,94225.00
2023-05-10T08:41:58.812Z,94229.00
2023-05-10T08:42:58.988Z,94227.00
2023-05-10T08:43:58.896Z,94229.00
2023-05-10T08:44:59.118Z,94231.00
2023-05-10T08:45:59.039Z,94231.00
2023-05-10T08:46:59.118Z,94231.00
2023-05-10T08:47:59.169Z,94233.00
2023-05-10T08:48:59.183Z,94233.00
2023-05-10T08:49:59.682Z,94237.00
2023-05-10T08:50:59.229Z,94239.00
2023-05-10T08:51:59.273Z,94241.00
2023-05-10T08:52:59.346Z,94241.00
2023-05-10T08:53:59.433Z,94237.00
2023-05-10T08:54:59.478Z,94241.00
2023-05-10T08:55:59.476Z,94241.00
2023-05-10T08:56:59.527Z,94241.00
2023-05-10T08:57:59.600Z,94243.00
2023-05-10T08:58:59.618Z,94243.00
2023-05-10T08:59:59.865Z,94243.00
2023-05-10T09:00:59.742Z,94247.00
2023-05-10T09:01:59.775Z,94245.00
2023-05-10T09:02:59.850Z,94247.00
2023-05-10T09:03:59.980Z,94245.00
2023-05-10T09:05:00.255Z,94249.00
2023-05-10T09:05:59.956Z,94247.00
2023-05-10T09:07:00.161Z,94247.00
2023-05-10T09:08:00.183Z,94247.00
2023-05-10T09:09:00.198Z,94247.00
2023-05-10T09:10:00.282Z,94249.00
2023-05-10T09:11:00.247Z,94251.00
2023-05-10T09:12:00.253Z,94251.00
2023-05-10T09:13:00.290Z,94255.00
2023-05-10T09:14:00.421Z,94257.00
2023-05-10T09:15:00.360Z,94257.00
2023-05-10T09:16:07.097Z,94257.00
2023-05-10T09:17:01.438Z,94257.00
2023-05-10T09:18:00.467Z,94259.00
2023-05-10T09:19:00.405Z,94261.00
2023-05-10T09:20:00.401Z,94262.00
2023-05-10T09:21:00.434Z,94261.00
2023-05-10T09:22:00.397Z,94261.00
2023-05-10T09:23:00.369Z,94262.00
2023-05-10T09:24:00.374Z,94262.00
2023-05-10T09:25:00.348Z,94262.00
2023-05-10T09:26:00.350Z,94264.00
2023-05-10T09:27:00.463Z,94262.00
2023-05-10T09:28:00.410Z,94264.00
2023-05-10T09:29:00.460Z,94266.00
2023-05-10T09:30:00.625Z,94268.00
2023-05-10T09:31:00.544Z,94266.00
2023-05-10T09:32:00.581Z,94268.00
2023-05-10T09:33:00.751Z,94270.00
2023-05-10T09:34:00.667Z,94268.00
2023-05-10T09:35:00.694Z,94272.00
2023-05-10T09:36:00.755Z,94270.00
2023-05-10T09:37:00.711Z,94266.00
2023-05-10T09:38:00.736Z,94272.00
2023-05-10T09:39:00.790Z,94268.00
2023-05-10T09:40:00.778Z,94266.00
2023-05-10T09:41:00.861Z,94266.00
2023-05-10T09:42:00.809Z,94268.00
2023-05-10T09:43:00.993Z,94268.00
2023-05-10T09:44:00.822Z,94268.00
2023-05-10T09:45:01.666Z,94270.00
2023-05-10T09:46:00.968Z,94268.00
2023-05-10T09:47:00.932Z,94270.00
2023-05-10T09:48:00.910Z,94268.00
2023-05-10T09:49:00.910Z,94268.00
2023-05-10T09:50:00.963Z,94272.00
2023-05-10T09:51:01.258Z,94270.00
2023-05-10T09:52:01.052Z,94272.00
2023-05-10T09:53:01.127Z,94272.00
2023-05-10T09:54:01.095Z,94270.00
2023-05-10T09:55:01.088Z,94268.00
2023-05-10T09:56:01.170Z,94270.00
2023-05-10T09:57:01.144Z,94270.00
2023-05-10T09:58:01.206Z,94268.00
2023-05-10T09:59:01.197Z,94268.00
2023-05-10T10:00:01.434Z,94268.00
2023-05-10T10:01:01.333Z,94266.00
2023-05-10T10:02:01.759Z,94268.00
2023-05-10T10:03:01.411Z,94264.00
2023-05-10T10:04:01.383Z,94266.00
2023-05-10T10:05:01.414Z,94266.00
2023-05-10T10:06:01.410Z,94264.00
2023-05-10T10:07:02.145Z,94266.00
2023-05-10T10:08:01.464Z,94264.00
2023-05-10T10:09:01.562Z,94262.00
2023-05-10T10:10:01.533Z,94262.00
2023-05-10T10:11:01.646Z,94264.00
2023-05-10T10:12:01.619Z,94264.00
2023-05-10T10:13:01.563Z,94262.00
2023-05-10T10:14:01.597Z,94264.00
2023-05-10T10:15:01.567Z,94266.00
2023-05-10T10:16:01.713Z,94268.00
2023-05-10T10:17:08.026Z,94266.00
2023-05-10T10:18:03.175Z,94268.00
2023-05-10T10:19:01.708Z,94274.00
2023-05-10T10:20:01.600Z,94270.00
2023-05-10T10:21:01.610Z,94270.00
2023-05-10T10:22:01.575Z,94268.00
2023-05-10T10:23:01.623Z,94272.00
2023-05-10T10:24:01.628Z,94270.00
2023-05-10T10:25:01.568Z,94272.00
2023-05-10T10:26:01.589Z,94272.00
2023-05-10T10:27:01.581Z,94272.00
2023-05-10T10:28:01.569Z,94272.00
2023-05-10T10:29:01.535Z,94270.00
2023-05-10T10:30:01.563Z,94272.00
2023-05-10T10:31:01.708Z,94272.00
2023-05-10T10:32:02.159Z,94272.00
2023-05-10T10:33:04.018Z,94276.00
2023-05-10T10:34:02.545Z,94276.00
2023-05-10T10:35:01.548Z,94274.00
2023-05-10T10:36:01.598Z,94276.00
2023-05-10T10:37:01.516Z,94274.00
2023-05-10T10:38:01.508Z,94274.00
2023-05-10T10:39:01.489Z,94276.00
2023-05-10T10:40:01.512Z,94272.00
2023-05-10T10:41:01.517Z,94276.00
2023-05-10T10:42:01.480Z,94272.00
2023-05-10T10:43:01.446Z,94272.00
2023-05-10T10:44:01.495Z,94274.00
2023-05-10T10:45:01.447Z,94272.00
2023-05-10T10:46:01.491Z,94272.00
2023-05-10T10:47:01.496Z,94270.00
2023-05-10T10:48:01.503Z,94276.00
2023-05-10T10:49:01.466Z,94276.00
2023-05-10T10:50:01.434Z,94274.00
2023-05-10T10:51:01.678Z,94270.00
2023-05-10T10:52:01.516Z,94272.00
2023-05-10T10:53:01.493Z,94272.00
2023-05-10T10:54:02.156Z,94270.00
2023-05-10T10:55:01.502Z,94270.00
2023-05-10T10:56:01.565Z,94270.00
2023-05-10T10:57:01.577Z,94270.00
2023-05-10T10:58:01.763Z,94272.00
2023-05-10T10:59:01.627Z,94272.00
2023-05-10T11:00:01.662Z,94274.00
2023-05-10T11:01:01.776Z,94276.00
2023-05-10T11:02:01.799Z,94274.00
2023-05-10T11:03:01.912Z,94272.00
2023-05-10T11:04:01.974Z,94276.00
2023-05-10T11:05:01.856Z,94274.00
2023-05-10T11:06:01.874Z,94272.00
2023-05-10T11:07:01.908Z,94270.00
2023-05-10T11:08:02.006Z,94270.00
2023-05-10T11:09:01.978Z,94272.00
2023-05-10T11:10:01.955Z,94272.00
2023-05-10T11:11:01.971Z,94272.00
2023-05-10T11:12:01.973Z,94270.00
2023-05-10T11:13:02.021Z,94270.00
2023-05-10T11:14:02.069Z,94268.00
2023-05-10T11:15:02.124Z,94270.00
2023-05-10T11:16:02.154Z,94266.00
2023-05-10T11:17:02.148Z,94264.00
2023-05-10T11:18:02.212Z,94264.00
2023-05-10T11:19:02.236Z,94264.00
2023-05-10T11:20:02.179Z,94266.00
2023-05-10T11:21:02.252Z,94264.00
2023-05-10T11:22:02.215Z,94268.00
2023-05-10T11:23:02.306Z,94268.00
2023-05-10T11:24:02.248Z,94268.00
2023-05-10T11:25:02.266Z,94268.00
2023-05-10T11:26:02.334Z,94268.00
2023-05-10T11:27:02.299Z,94272.00
2023-05-10T11:28:02.270Z,94274.00
2023-05-10T11:29:02.288Z,94270.00
2023-05-10T11:30:04.323Z,94266.00
2023-05-10T11:31:02.603Z,94270.00
2023-05-10T11:32:02.540Z,94268.00
2023-05-10T11:33:02.603Z,94268.00
2023-05-10T11:34:02.630Z,94268.00
2023-05-10T11:35:02.564Z,94270.00
2023-05-10T11:36:02.644Z,94268.00
2023-05-10T11:37:02.655Z,94270.00
2023-05-10T11:38:02.645Z,94270.00
2023-05-10T11:39:02.676Z,94270.00
2023-05-10T11:40:02.659Z,94270.00
2023-05-10T11:41:02.708Z,94270.00
2023-05-10T11:42:02.686Z,94268.00
2023-05-10T11:43:02.710Z,94270.00
2023-05-10T11:44:02.696Z,94270.00
2023-05-10T11:45:02.775Z,94272.00
2023-05-10T11:46:02.825Z,94272.00
2023-05-10T11:47:02.790Z,94274.00
2023-05-10T11:48:02.866Z,94276.00
2023-05-10T11:49:02.957Z,94272.00
2023-05-10T11:50:02.852Z,94276.00
2023-05-10T11:51:02.916Z,94274.00
2023-05-10T11:52:02.885Z,94272.00
2023-05-10T11:53:02.916Z,94272.00
2023-05-10T11:54:02.936Z,94272.00
2023-05-10T11:55:02.962Z,94272.00
2023-05-10T11:56:03.014Z,94272.00